FLIGHT INFORMATION
PMDG Flight Operations

PFO23

At Arrival Gate

KIAD
 KLAX
DATE: 2018-08-23
GATE:  -
GATE DEPARTURE: 22:02
TAKEOFF: 22:10
DATE: 2018-08-24
GATE:  -
LANDING: 02:52
GATE ARRIVAL: 02:57
FLIGHT DATA
Crew: MICHAEL ROTH
Speed: 510 kts Altitude: 35000 ft
Stage Length: 1984 nm
Route: 
Block Time: 4.9 Flight Time: 4.7
Fuel Used: 96956 LB
TRACK DATA
50000 FT1000 KTAltitudeSpeed
AIRCRAFT INFORMATION
Aircraft Type: B748F
Registration: N748PM
SELCAL:  MSN/LN: 0 / 2
Operator: PMDG FLIGHT OPERATIONS
Flights: 6 Block Time: 52.2 Flight Time: 50.8
Fuel Used: 1013403 LB
  • DEPARTURE INFORMATION
    Date: 2018-08-23
    Airport: KIAD
    Gate:  -
    Gate Departure: 22:02
    Takeoff: 22:10
    ARRIVAL INFORMATION
    Date: 2018-08-24
    Airport: KLAX
    Gate:  -
    Landing: 02:52
    Gate Arrival: 02:57
  • FLIGHT DATA
    Crew: MICHAEL ROTH
    Speed: 510 kts Altitude: 35000 ft
    Stage Length: 1071 nm
    Route: 
    Block Time: 4.9 Flight Time: 4.7
    Fuel Used: 96956 LB
  • AIRCRAFT INFORMATION
    Aircraft Type: B748F
    Registration: N748PM
    SELCAL:  MSN/LN: 0 / 2
    Operator: PMDG Flight Operations
    Flights: 6 Block Time: 52.2 Flight Time: 50.8
    Fuel Used: 1013403 LB

DATALINK LOG | Newest first | Current as of: 2020-05-27 01:55:40
LABEL ID SEQUENCE CONTENT Dn/Up
QD575702:57 35.2▼ Dn
QC521202:52▼ Dn
2U0038KLAX 240053Z 25015KT 9SM FEW014 FEW200 23/18 A2993 RMK AO2 SLP134 T02330178 $▲ Up
2S1022KLAX▼ Dn
2U4804KLAX 232353Z 26014KT 9SM FEW014 FEW200 24/18 A2994 RMK AO2 SLP136 T02390178 10256 20239 56021 $▲ Up
2S5053KLAX▼ Dn
QB100722:10▼ Dn
QA021822:02 132.3▼ Dn


AIRCRAFT HISTORY
FLIGHT DATE FLIGHT NUMBER ORIGIN DESTINATION ROUTE BLOCK TIME FLIGHT TIME FUEL USED (LB) PILOT
2018-08-24PFO24KLAX ZBAA 12.812.4246438Michael Roth
2018-08-23PFO23KIAD KLAX 4.94.796956Michael Roth
2018-08-20PFO1204KSFO KIAD 4.94.494882Mark Adeane
2018-08-19PFO3265YSSY KSFO 13.212.9285878Mark Adeane
2018-08-04PFO804KLAX YSSY 14.514.2250945Kyle Rodgers
2018-08-04PFO804KPAE KLAX 2.42.138304Kyle Rodgers